createdAt,value
2022-12-28T00:01:20.128Z,0.40
2022-12-28T00:03:46.987Z,0.30
2022-12-28T00:06:16.743Z,0.50
2022-12-28T00:08:43.524Z,0.30
2022-12-28T00:11:26.492Z,0.40
2022-12-28T00:13:57.159Z,0.28
2022-12-28T00:16:34.880Z,0.35
2022-12-28T00:19:03.135Z,0.40
2022-12-28T00:21:30.061Z,0.35
2022-12-28T00:23:58.231Z,0.30
2022-12-28T00:26:25.805Z,0.30
2022-12-28T00:28:55.569Z,0.20
2022-12-28T00:31:26.740Z,0.22
2022-12-28T00:33:53.739Z,0.20
2022-12-28T00:36:20.509Z,0.30
2022-12-28T00:38:47.144Z,0.25
2022-12-28T00:41:13.839Z,0.30
2022-12-28T00:43:40.545Z,0.20
2022-12-28T00:46:07.318Z,0.30
2022-12-28T00:48:34.105Z,0.20
2022-12-28T00:51:02.686Z,0.17
2022-12-28T00:53:29.373Z,0.20
2022-12-28T00:55:56.031Z,0.13
2022-12-28T00:58:22.697Z,0.13
2022-12-28T01:00:49.552Z,0.17
2022-12-28T01:03:16.333Z,0.20
2022-12-28T01:05:43.111Z,0.20
2022-12-28T01:08:09.771Z,0.30
2022-12-28T01:10:39.265Z,0.20
2022-12-28T01:13:06.042Z,0.20
2022-12-28T01:15:32.709Z,0.10
2022-12-28T01:17:59.379Z,0.10
2022-12-28T01:20:26.058Z,0.13
2022-12-28T01:22:52.731Z,0.10
2022-12-28T01:25:19.405Z,0.20
2022-12-28T01:27:46.080Z,0.20
2022-12-28T01:30:14.108Z,0.20
2022-12-28T01:32:40.881Z,0.10
2022-12-28T01:35:08.018Z,0.20
2022-12-28T01:37:35.531Z,0.20
2022-12-28T01:40:02.225Z,0.10
2022-12-28T01:42:28.921Z,0.13
2022-12-28T01:44:55.590Z,0.20
2022-12-28T01:47:26.372Z,0.20
2022-12-28T01:49:56.117Z,0.20
2022-12-28T01:52:40.467Z,0.20
2022-12-28T01:55:19.517Z,0.20
2022-12-28T01:57:51.349Z,0.20
2022-12-28T02:00:18.251Z,0.10
2022-12-28T02:02:48.513Z,0.20
2022-12-28T02:05:15.301Z,0.10
2022-12-28T02:07:46.873Z,0.20
2022-12-28T02:10:43.530Z,0.25
2022-12-28T02:13:00.407Z,0.20
2022-12-28T02:15:27.125Z,0.20
2022-12-28T02:17:53.759Z,0.20
2022-12-28T02:20:20.568Z,0.30
2022-12-28T02:22:59.957Z,0.40
2022-12-28T02:25:46.351Z,0.32
2022-12-28T02:28:37.684Z,0.20
2022-12-28T02:31:11.190Z,0.17
2022-12-28T02:33:43.132Z,0.28
2022-12-28T02:36:18.648Z,0.20
2022-12-28T02:38:52.052Z,0.10
2022-12-28T02:41:23.047Z,0.10
2022-12-28T02:43:49.778Z,0.15
2022-12-28T02:46:41.774Z,0.10
2022-12-28T02:49:43.297Z,0.15
2022-12-28T02:52:37.397Z,0.17
2022-12-28T02:55:50.481Z,0.10
2022-12-28T02:58:38.280Z,0.20
2022-12-28T03:01:43.058Z,0.22
2022-12-28T03:04:28.406Z,0.25
2022-12-28T03:07:32.662Z,0.10
2022-12-28T03:10:18.905Z,0.20
2022-12-28T03:13:32.490Z,0.10
2022-12-28T03:16:01.158Z,0.30
2022-12-28T03:18:46.394Z,0.28
2022-12-28T03:21:31.557Z,0.10
2022-12-28T03:24:16.757Z,0.20
2022-12-28T03:27:06.570Z,0.10
2022-12-28T03:30:01.885Z,0.20
2022-12-28T03:32:28.896Z,0.08
2022-12-28T03:34:55.556Z,0.20
2022-12-28T03:37:33.349Z,0.10
2022-12-28T03:40:06.277Z,0.10
2022-12-28T03:42:59.311Z,0.10
2022-12-28T03:45:45.411Z,0.20
2022-12-28T03:48:14.000Z,0.10
2022-12-28T03:50:41.534Z,0.20
2022-12-28T03:53:08.888Z,0.10
2022-12-28T03:55:37.918Z,0.10
2022-12-28T03:58:05.511Z,0.10
2022-12-28T04:00:32.315Z,0.10
2022-12-28T04:02:59.068Z,0.10
2022-12-28T04:05:25.906Z,0.20
2022-12-28T04:07:52.584Z,0.28
2022-12-28T04:10:19.246Z,0.20
2022-12-28T04:12:45.917Z,0.20
2022-12-28T04:15:12.599Z,0.10
2022-12-28T04:17:39.308Z,0.20
2022-12-28T04:20:06.481Z,0.17
2022-12-28T04:22:33.269Z,0.30
2022-12-28T04:24:59.912Z,0.10
2022-12-28T04:27:26.739Z,0.10
2022-12-28T04:29:53.387Z,0.10
2022-12-28T04:32:20.165Z,0.13
2022-12-28T04:34:49.004Z,0.10
2022-12-28T04:37:15.906Z,0.20
2022-12-28T04:39:55.223Z,0.10
2022-12-28T04:42:27.076Z,0.10
2022-12-28T04:44:53.822Z,0.10
2022-12-28T04:47:20.624Z,0.10
2022-12-28T04:49:47.349Z,0.10
2022-12-28T04:52:14.125Z,0.00
2022-12-28T04:54:40.836Z,0.10
2022-12-28T04:57:07.547Z,0.10
2022-12-28T04:59:34.269Z,0.10
2022-12-28T05:02:01.089Z,0.03
2022-12-28T05:04:27.867Z,0.10
2022-12-28T05:06:54.557Z,0.10
2022-12-28T05:09:21.360Z,0.10
2022-12-28T05:11:48.269Z,0.10
2022-12-28T05:14:15.127Z,0.10
2022-12-28T05:16:42.064Z,0.10
2022-12-28T05:19:08.790Z,0.08
2022-12-28T05:21:35.487Z,0.20
2022-12-28T05:24:02.188Z,0.10
2022-12-28T05:26:29.641Z,0.10
2022-12-28T05:28:56.797Z,0.10
2022-12-28T05:31:23.912Z,0.10
2022-12-28T05:33:50.697Z,0.20
2022-12-28T05:36:18.839Z,0.10
2022-12-28T05:38:45.785Z,0.10
2022-12-28T05:41:17.761Z,0.10
2022-12-28T05:43:44.496Z,0.10
2022-12-28T05:46:13.082Z,0.10
2022-12-28T05:48:40.498Z,0.10
2022-12-28T05:51:11.957Z,0.10
2022-12-28T05:53:38.730Z,0.20
2022-12-28T05:56:10.811Z,0.13
2022-12-28T05:58:40.912Z,0.10
2022-12-28T06:01:08.601Z,0.10
2022-12-28T06:03:35.857Z,0.10
2022-12-28T06:06:04.365Z,0.20
2022-12-28T06:08:31.023Z,0.20
2022-12-28T06:11:04.629Z,0.22
2022-12-28T06:13:31.552Z,0.20
2022-12-28T06:15:58.298Z,0.20
2022-12-28T06:18:28.512Z,0.10
2022-12-28T06:20:57.165Z,0.10
2022-12-28T06:23:24.014Z,0.25
2022-12-28T06:25:50.734Z,0.10
2022-12-28T06:28:17.452Z,0.10
2022-12-28T06:30:48.984Z,0.10
2022-12-28T06:33:18.961Z,0.20
2022-12-28T06:35:45.660Z,0.10
2022-12-28T06:38:12.474Z,0.10
2022-12-28T06:41:11.768Z,0.15
2022-12-28T06:43:25.756Z,0.20
2022-12-28T06:45:56.547Z,0.10
2022-12-28T06:48:23.341Z,0.20
2022-12-28T06:51:11.761Z,0.20
2022-12-28T06:53:38.589Z,0.20
2022-12-28T06:56:26.711Z,0.20
2022-12-28T06:58:58.441Z,0.10
2022-12-28T07:01:33.717Z,0.10
2022-12-28T07:04:01.281Z,0.30
2022-12-28T07:06:28.533Z,0.30
2022-12-28T07:09:02.668Z,0.40
2022-12-28T07:11:29.362Z,0.20
2022-12-28T07:13:56.396Z,0.30
2022-12-28T07:16:26.937Z,0.20
2022-12-28T07:18:53.663Z,0.15
2022-12-28T07:21:31.183Z,0.10
2022-12-28T07:23:57.974Z,0.38
2022-12-28T07:26:27.671Z,0.22
2022-12-28T07:28:55.248Z,0.30
2022-12-28T07:31:26.890Z,0.40
2022-12-28T07:33:55.519Z,0.63
2022-12-28T07:36:22.579Z,0.70
2022-12-28T07:38:49.456Z,0.32
2022-12-28T07:41:39.682Z,0.40
2022-12-28T07:44:06.458Z,0.55
2022-12-28T07:46:34.588Z,0.40
2022-12-28T07:49:01.458Z,0.60
2022-12-28T07:51:32.773Z,0.60
2022-12-28T07:53:59.882Z,0.40
2022-12-28T07:56:27.652Z,1.23
2022-12-28T07:58:59.216Z,0.50
2022-12-28T08:01:27.580Z,0.52
2022-12-28T08:03:58.321Z,0.70
2022-12-28T08:06:25.619Z,0.65
2022-12-28T08:08:54.342Z,0.70
2022-12-28T08:11:23.348Z,0.85
2022-12-28T08:13:51.160Z,0.60
2022-12-28T08:16:18.648Z,0.50
2022-12-28T08:18:45.615Z,0.60
2022-12-28T08:21:13.990Z,0.80
2022-12-28T08:23:41.037Z,0.65
2022-12-28T08:26:29.726Z,0.70
2022-12-28T08:28:59.550Z,1.00
2022-12-28T08:31:28.209Z,0.90
2022-12-28T08:33:55.671Z,0.80
2022-12-28T08:36:22.427Z,0.80
2022-12-28T08:38:49.201Z,0.80
2022-12-28T08:41:17.684Z,0.80
2022-12-28T08:43:44.583Z,0.90
2022-12-28T08:46:12.066Z,1.02
2022-12-28T08:48:38.886Z,1.10
2022-12-28T08:51:08.147Z,0.95
2022-12-28T08:53:35.292Z,0.70
2022-12-28T08:56:10.592Z,0.60
2022-12-28T08:58:37.888Z,0.40
2022-12-28T09:01:06.717Z,0.85
2022-12-28T09:03:36.050Z,0.47
2022-12-28T09:06:05.034Z,0.60
2022-12-28T09:08:32.191Z,0.50
2022-12-28T09:11:00.875Z,0.30
2022-12-28T09:13:28.909Z,0.50
2022-12-28T09:16:18.465Z,0.30
2022-12-28T09:18:45.626Z,0.38
2022-12-28T09:21:16.181Z,0.52
2022-12-28T09:23:43.484Z,0.35
2022-12-28T09:26:12.500Z,0.43
2022-12-28T09:28:39.435Z,0.95
2022-12-28T09:31:07.506Z,0.60
2022-12-28T09:34:32.056Z,0.57
2022-12-28T09:36:43.956Z,0.50
2022-12-28T09:39:13.695Z,0.93
2022-12-28T09:42:14.337Z,0.98
2022-12-28T09:45:00.818Z,1.10
2022-12-28T09:47:45.853Z,0.77
2022-12-28T09:50:18.890Z,1.02
2022-12-28T09:53:04.536Z,0.80
2022-12-28T09:55:38.681Z,0.70
2022-12-28T09:58:06.374Z,0.80
2022-12-28T10:00:46.981Z,1.08
2022-12-28T10:03:35.497Z,1.17
2022-12-28T10:06:02.478Z,0.70
2022-12-28T10:08:29.169Z,0.98
2022-12-28T10:10:57.683Z,0.90
2022-12-28T10:13:53.624Z,0.40
2022-12-28T10:16:18.085Z,0.52
2022-12-28T10:18:46.525Z,0.50
2022-12-28T10:21:15.259Z,0.43
2022-12-28T10:24:04.728Z,1.02
2022-12-28T10:26:28.757Z,0.63
2022-12-28T10:28:58.348Z,0.80
2022-12-28T10:31:43.323Z,0.70
2022-12-28T10:34:22.747Z,0.73
2022-12-28T10:36:49.692Z,0.95
2022-12-28T10:39:20.828Z,0.93
2022-12-28T10:41:47.883Z,1.00
2022-12-28T10:44:41.361Z,0.68
2022-12-28T10:47:40.978Z,0.77
2022-12-28T10:50:36.225Z,0.90
2022-12-28T10:52:58.219Z,0.88
2022-12-28T10:55:30.987Z,1.20
2022-12-28T10:58:31.172Z,0.70
2022-12-28T11:01:12.271Z,0.90
2022-12-28T11:03:41.249Z,0.80
2022-12-28T11:06:22.777Z,0.55
2022-12-28T11:09:21.141Z,1.00
2022-12-28T11:11:48.947Z,0.70
2022-12-28T11:14:33.050Z,1.33
2022-12-28T11:17:28.966Z,0.68
2022-12-28T11:19:58.039Z,1.33
2022-12-28T11:22:26.174Z,0.70
2022-12-28T11:24:52.913Z,0.70
2022-12-28T11:27:20.872Z,0.70
2022-12-28T11:29:49.857Z,1.00
2022-12-28T11:32:34.524Z,0.90
2022-12-28T11:35:01.239Z,0.82
2022-12-28T11:37:27.963Z,0.90
2022-12-28T11:39:55.465Z,1.10
2022-12-28T11:42:39.552Z,1.02
2022-12-28T11:45:13.687Z,0.70
2022-12-28T11:47:40.345Z,0.70
2022-12-28T11:50:42.395Z,0.88
2022-12-28T11:53:42.392Z,0.90
2022-12-28T11:56:09.823Z,0.75
2022-12-28T11:58:42.639Z,0.50
2022-12-28T12:01:29.073Z,0.77
2022-12-28T12:03:57.065Z,1.10
2022-12-28T12:06:42.361Z,0.82
2022-12-28T12:09:21.092Z,0.50
2022-12-28T12:11:48.815Z,1.02
2022-12-28T12:14:16.304Z,0.70
2022-12-28T12:16:54.351Z,0.40
2022-12-28T12:19:26.864Z,0.43
2022-12-28T12:22:00.866Z,0.60
2022-12-28T12:24:44.218Z,0.68
2022-12-28T12:27:15.159Z,0.57
2022-12-28T12:29:44.872Z,0.50
2022-12-28T12:32:47.838Z,0.90
2022-12-28T12:35:22.544Z,0.50
2022-12-28T12:38:04.152Z,0.70
2022-12-28T12:41:09.022Z,0.75
2022-12-28T12:44:06.805Z,0.88
2022-12-28T12:47:19.297Z,0.50
2022-12-28T12:50:20.549Z,0.60
2022-12-28T12:52:55.283Z,0.60
2022-12-28T12:55:38.334Z,0.77
2022-12-28T12:58:09.407Z,0.80
2022-12-28T13:00:50.400Z,0.60
2022-12-28T13:03:24.261Z,0.70
2022-12-28T13:05:55.069Z,0.50
2022-12-28T13:08:47.262Z,1.35
2022-12-28T13:11:14.468Z,0.60
2022-12-28T13:13:43.188Z,1.00
2022-12-28T13:16:11.820Z,0.63
2022-12-28T13:18:46.248Z,0.70
2022-12-28T13:21:18.225Z,0.88
2022-12-28T13:23:45.420Z,0.63
2022-12-28T13:26:13.131Z,0.82
2022-12-28T13:28:43.953Z,0.68
2022-12-28T13:31:27.887Z,0.52
2022-12-28T13:33:59.539Z,0.70
2022-12-28T13:36:26.377Z,0.52
2022-12-28T13:39:22.936Z,0.60
2022-12-28T13:41:54.546Z,0.47
2022-12-28T13:44:23.923Z,0.40
2022-12-28T13:46:58.075Z,0.70
2022-12-28T13:49:24.986Z,0.35
2022-12-28T13:51:53.666Z,0.82
2022-12-28T13:54:20.737Z,0.43
2022-12-28T13:56:47.528Z,0.40
2022-12-28T13:59:15.937Z,0.30
2022-12-28T14:01:44.581Z,0.38
2022-12-28T14:07:02.555Z,0.30
2022-12-28T14:09:29.319Z,0.63
2022-12-28T14:11:57.115Z,0.30
2022-12-28T14:14:24.033Z,0.45
2022-12-28T14:16:50.783Z,0.50
2022-12-28T14:19:17.464Z,0.50
2022-12-28T14:21:45.345Z,0.52
2022-12-28T14:24:13.983Z,0.30
2022-12-28T14:26:52.229Z,0.43
2022-12-28T14:29:31.777Z,0.35
2022-12-28T14:31:59.765Z,0.40
2022-12-28T14:34:34.618Z,0.30
2022-12-28T14:37:01.489Z,0.30
2022-12-28T14:39:34.648Z,0.57
2022-12-28T14:42:05.715Z,0.40
2022-12-28T14:44:37.956Z,0.95
2022-12-28T14:47:44.260Z,0.63
2022-12-28T14:50:28.256Z,0.60
2022-12-28T14:53:08.495Z,0.60
2022-12-28T14:55:41.764Z,0.50
2022-12-28T15:00:54.402Z,0.70
2022-12-28T15:03:21.916Z,0.50
2022-12-28T15:05:52.524Z,0.40
2022-12-28T15:08:19.211Z,0.70
2022-12-28T15:13:35.859Z,0.82
2022-12-28T15:16:04.246Z,0.90
2022-12-28T15:18:31.306Z,0.45
2022-12-28T15:20:58.230Z,0.52
2022-12-28T15:23:26.023Z,0.68
2022-12-28T15:25:52.745Z,0.40
2022-12-28T15:28:19.466Z,0.77
2022-12-28T15:30:46.269Z,0.80
2022-12-28T15:33:13.106Z,0.57
2022-12-28T15:35:39.744Z,0.40
2022-12-28T15:38:06.531Z,0.77
2022-12-28T15:40:33.385Z,0.40
2022-12-28T15:43:01.095Z,0.70
2022-12-28T15:45:27.827Z,0.73
2022-12-28T15:47:54.907Z,0.70
2022-12-28T15:50:21.848Z,1.20
2022-12-28T15:52:48.673Z,0.70
2022-12-28T15:55:15.459Z,0.70
2022-12-28T15:57:44.344Z,0.70
2022-12-28T16:00:13.244Z,1.30
2022-12-28T16:02:40.121Z,1.08
2022-12-28T16:05:07.203Z,0.90
2022-12-28T16:07:33.969Z,1.27
2022-12-28T16:10:00.646Z,1.77
2022-12-28T16:12:27.404Z,1.17
2022-12-28T16:14:54.130Z,1.30
2022-12-28T16:17:20.928Z,1.70
2022-12-28T16:19:47.677Z,1.27
2022-12-28T16:22:14.434Z,1.23
2022-12-28T16:24:41.169Z,1.60
2022-12-28T16:27:08.513Z,1.83
2022-12-28T16:29:35.985Z,2.35
2022-12-28T16:32:02.851Z,1.48
2022-12-28T16:34:31.561Z,1.58
2022-12-28T16:36:59.639Z,2.13
2022-12-28T16:39:28.313Z,1.70
2022-12-28T16:41:55.067Z,2.22
2022-12-28T16:44:23.344Z,1.90
2022-12-28T16:46:50.128Z,1.70
2022-12-28T16:49:17.111Z,1.20
2022-12-28T16:51:45.335Z,2.03
2022-12-28T16:54:17.388Z,1.95
2022-12-28T16:56:45.138Z,2.08
2022-12-28T16:59:16.164Z,2.20
2022-12-28T17:01:43.729Z,2.28
2022-12-28T17:04:10.772Z,2.00
2022-12-28T17:06:38.784Z,2.13
2022-12-28T17:09:05.629Z,2.35
2022-12-28T17:11:32.421Z,2.42
2022-12-28T17:14:03.827Z,1.85
2022-12-28T17:16:30.947Z,2.53
2022-12-28T17:18:57.706Z,2.28
2022-12-28T17:21:24.417Z,2.10
2022-12-28T17:23:51.180Z,1.80
2022-12-28T17:26:17.829Z,2.00
2022-12-28T17:28:44.698Z,1.65
2022-12-28T17:31:14.313Z,2.30
2022-12-28T17:33:48.225Z,2.15
2022-12-28T17:36:15.091Z,2.67
2022-12-28T17:38:42.111Z,1.70
2022-12-28T17:41:14.393Z,2.10
2022-12-28T17:43:54.956Z,2.22
2022-12-28T17:46:21.981Z,1.30
2022-12-28T17:48:48.771Z,1.90
2022-12-28T17:51:15.519Z,1.65
2022-12-28T17:53:42.276Z,1.83
2022-12-28T17:56:10.862Z,1.60
2022-12-28T17:58:37.570Z,1.25
2022-12-28T18:01:05.032Z,1.45
2022-12-28T18:03:34.233Z,1.30
2022-12-28T18:06:01.243Z,1.27
2022-12-28T18:08:28.085Z,1.45
2022-12-28T18:10:54.757Z,1.40
2022-12-28T18:13:21.891Z,1.15
2022-12-28T18:15:48.582Z,1.80
2022-12-28T18:18:15.937Z,1.08
2022-12-28T18:20:42.937Z,1.10
2022-12-28T18:23:10.130Z,1.38
2022-12-28T18:25:37.237Z,1.42
2022-12-28T18:28:04.152Z,1.60
2022-12-28T18:30:30.949Z,1.73
2022-12-28T18:32:58.148Z,1.70
2022-12-28T18:35:26.774Z,1.33
2022-12-28T18:37:53.653Z,1.98
2022-12-28T18:40:20.419Z,1.40
2022-12-28T18:42:47.169Z,1.50
2022-12-28T18:45:14.126Z,1.10
2022-12-28T18:47:40.812Z,1.45
2022-12-28T18:50:08.299Z,0.90
2022-12-28T18:52:36.142Z,1.40
2022-12-28T18:55:03.480Z,0.90
2022-12-28T18:57:30.193Z,0.75
2022-12-28T18:59:56.870Z,0.80
2022-12-28T19:02:23.699Z,0.90
2022-12-28T19:04:52.993Z,1.20
2022-12-28T19:07:19.823Z,1.27
2022-12-28T19:10:11.552Z,1.42
2022-12-28T19:12:40.323Z,1.00
2022-12-28T19:15:09.239Z,1.45
2022-12-28T19:17:35.950Z,1.38
2022-12-28T19:20:02.973Z,1.25
2022-12-28T19:22:30.997Z,1.27
2022-12-28T19:24:57.683Z,1.20
2022-12-28T19:27:24.365Z,1.77
2022-12-28T19:29:51.069Z,1.55
2022-12-28T19:32:17.856Z,1.45
2022-12-28T19:34:44.525Z,2.08
2022-12-28T19:37:11.168Z,1.88
2022-12-28T19:39:37.860Z,2.50
2022-12-28T19:42:04.692Z,2.38
2022-12-28T19:44:31.406Z,1.80
2022-12-28T19:46:58.828Z,2.45
2022-12-28T19:49:25.760Z,2.38
2022-12-28T19:51:52.576Z,2.25
2022-12-28T19:54:20.008Z,1.85
2022-12-28T19:56:46.791Z,2.20
2022-12-28T19:59:13.943Z,1.60
2022-12-28T20:01:40.736Z,1.75
2022-12-28T20:04:13.668Z,1.65
2022-12-28T20:06:42.257Z,1.60
2022-12-28T20:09:09.018Z,2.40
2022-12-28T20:11:35.766Z,1.83
2022-12-28T20:14:03.028Z,1.50
2022-12-28T20:16:31.018Z,1.83
2022-12-28T20:18:57.814Z,1.77
2022-12-28T20:21:25.340Z,2.30
2022-12-28T20:23:52.782Z,1.80
2022-12-28T20:26:20.099Z,2.38
2022-12-28T20:28:48.347Z,2.72
2022-12-28T20:31:15.294Z,2.00
2022-12-28T20:33:42.225Z,2.10
2022-12-28T20:36:11.651Z,2.42
2022-12-28T20:38:38.301Z,1.90
2022-12-28T20:41:10.724Z,2.95
2022-12-28T20:43:37.456Z,2.23
2022-12-28T20:46:10.072Z,2.08
2022-12-28T20:48:36.758Z,2.03
2022-12-28T20:51:03.488Z,2.63
2022-12-28T20:53:30.163Z,3.60
2022-12-28T20:56:07.247Z,2.20
2022-12-28T20:58:35.235Z,2.67
2022-12-28T21:01:09.675Z,2.33
2022-12-28T21:03:36.686Z,1.80
2022-12-28T21:06:03.865Z,2.20
2022-12-28T21:08:31.315Z,3.00
2022-12-28T21:10:58.192Z,3.22
2022-12-28T21:13:25.064Z,3.83
2022-12-28T21:15:52.576Z,2.80
2022-12-28T21:18:19.831Z,2.58
2022-12-28T21:20:47.336Z,2.25
2022-12-28T21:23:14.719Z,2.30
2022-12-28T21:25:41.427Z,3.38
2022-12-28T21:28:08.324Z,2.55
2022-12-28T21:30:35.077Z,2.22
2022-12-28T21:33:01.794Z,1.70
2022-12-28T21:35:33.881Z,2.45
2022-12-28T21:38:01.295Z,2.28
2022-12-28T21:40:27.966Z,1.48
2022-12-28T21:42:54.742Z,2.20
2022-12-28T21:45:21.548Z,1.75
2022-12-28T21:47:48.358Z,1.60
2022-12-28T21:50:15.084Z,2.38
2022-12-28T21:52:41.833Z,1.65
2022-12-28T21:55:27.470Z,1.65
2022-12-28T21:57:54.417Z,1.70
2022-12-28T22:00:39.870Z,1.27
2022-12-28T22:03:25.068Z,1.67
2022-12-28T22:06:04.011Z,1.60
2022-12-28T22:08:49.838Z,1.65
2022-12-28T22:11:35.477Z,1.27
2022-12-28T22:14:02.361Z,1.40
2022-12-28T22:16:32.163Z,1.35
2022-12-28T22:19:02.760Z,1.25
2022-12-28T22:21:30.261Z,1.67
2022-12-28T22:23:57.120Z,1.10
2022-12-28T22:26:23.849Z,1.45
2022-12-28T22:28:50.616Z,1.33
2022-12-28T22:31:17.423Z,1.35
2022-12-28T22:33:44.099Z,1.10
2022-12-28T22:36:10.785Z,1.50
2022-12-28T22:38:37.499Z,1.50
2022-12-28T22:41:04.181Z,1.42
2022-12-28T22:43:30.919Z,1.95
2022-12-28T22:46:02.361Z,1.50
2022-12-28T22:48:29.155Z,1.42
2022-12-28T22:50:55.872Z,1.75
2022-12-28T22:53:22.670Z,1.60
2022-12-28T22:55:56.875Z,1.67
2022-12-28T22:58:23.782Z,1.20
2022-12-28T23:00:50.493Z,1.40
2022-12-28T23:03:17.223Z,1.38
2022-12-28T23:05:51.142Z,1.92
2022-12-28T23:08:17.858Z,1.50
2022-12-28T23:10:58.628Z,1.48
2022-12-28T23:13:26.811Z,2.38
2022-12-28T23:15:57.879Z,2.28
2022-12-28T23:18:43.436Z,1.80
2022-12-28T23:21:38.195Z,1.90
2022-12-28T23:24:24.775Z,1.90
2022-12-28T23:27:10.080Z,1.50
2022-12-28T23:29:36.835Z,2.08
2022-12-28T23:32:04.023Z,1.80
2022-12-28T23:34:30.755Z,2.10
2022-12-28T23:36:57.506Z,2.10
2022-12-28T23:39:24.237Z,1.90
2022-12-28T23:41:51.156Z,2.03
2022-12-28T23:44:21.936Z,1.92
2022-12-28T23:46:51.306Z,1.58
2022-12-28T23:49:20.595Z,1.70
2022-12-28T23:51:47.677Z,2.33
2022-12-28T23:54:15.969Z,1.95
2022-12-28T23:56:43.100Z,2.08
2022-12-28T23:59:10.034Z,2.30
